createdAt,value
2024-01-20T00:04:32.100Z,0
2024-01-20T00:10:53.992Z,0
2024-01-20T00:17:18.067Z,0
2024-01-20T00:23:35.993Z,0
2024-01-20T00:29:55.993Z,0
2024-01-20T00:36:18.142Z,0
2024-01-20T00:42:38.141Z,0
2024-01-20T00:49:00.078Z,0
2024-01-20T00:55:20.091Z,0
2024-01-20T01:01:41.991Z,0
2024-01-20T01:08:02.026Z,0
2024-01-20T01:14:24.040Z,0
2024-01-20T01:20:44.072Z,0
2024-01-20T01:27:06.064Z,0
2024-01-20T01:33:25.990Z,0
2024-01-20T01:39:47.121Z,0
2024-01-20T01:46:07.083Z,0
2024-01-20T01:52:29.049Z,0
2024-01-20T01:58:49.048Z,0
2024-01-20T02:05:11.103Z,0
2024-01-20T02:11:31.216Z,0
2024-01-20T02:17:53.146Z,0
2024-01-20T02:24:13.260Z,0
2024-01-20T02:30:35.278Z,0
2024-01-20T02:36:55.090Z,0
2024-01-20T02:43:17.128Z,0
2024-01-20T02:49:37.064Z,0
2024-01-20T02:55:59.013Z,0
2024-01-20T03:02:19.118Z,0
2024-01-20T03:08:41.202Z,0
2024-01-20T03:15:01.323Z,0
2024-01-20T03:21:23.043Z,0
2024-01-20T03:27:43.072Z,0
2024-01-20T03:34:05.113Z,0
2024-01-20T03:40:25.021Z,0
2024-01-20T03:46:47.096Z,0
2024-01-20T03:53:07.025Z,0
2024-01-20T04:09:32.435Z,0
2024-01-20T04:15:51.954Z,0
2024-01-20T04:22:14.021Z,0
2024-01-20T04:28:33.989Z,0
2024-01-20T04:34:56.063Z,0
2024-01-20T04:41:16.122Z,0
2024-01-20T04:47:38.027Z,0
2024-01-20T04:53:58.064Z,0
2024-01-20T05:00:20.034Z,0
2024-01-20T05:06:40.081Z,0
2024-01-20T05:13:01.963Z,0
2024-01-20T05:19:22.274Z,0
2024-01-20T05:25:44.085Z,0
2024-01-20T05:32:04.203Z,0
2024-01-20T05:38:25.962Z,0
2024-01-20T05:44:46.017Z,0
2024-01-20T05:51:08.073Z,0
2024-01-20T05:57:28.067Z,0
2024-01-20T06:03:50.226Z,0
2024-01-20T06:10:10.115Z,0
2024-01-20T06:16:32.053Z,0
2024-01-20T06:22:52.048Z,0
2024-01-20T06:29:14.200Z,0
2024-01-20T06:35:33.985Z,0
2024-01-20T06:41:56.108Z,0
2024-01-20T06:48:16.088Z,1
2024-01-20T06:54:38.075Z,1
2024-01-20T07:00:58.134Z,2
2024-01-20T07:07:20.165Z,7
2024-01-20T07:13:40.080Z,15
2024-01-20T07:20:02.155Z,30
2024-01-20T07:26:21.996Z,51
2024-01-20T07:32:44.033Z,80
2024-01-20T07:39:04.063Z,113
2024-01-20T07:45:26.277Z,147
2024-01-20T07:51:46.101Z,189
2024-01-20T07:58:08.050Z,237
2024-01-20T08:04:27.975Z,292
2024-01-20T08:10:50.012Z,348
2024-01-20T08:17:10.026Z,410
2024-01-20T08:23:32.135Z,469
2024-01-20T08:29:52.018Z,529
2024-01-20T08:36:14.077Z,585
2024-01-20T08:42:34.020Z,649
2024-01-20T09:06:13.957Z,939
2024-01-20T09:12:35.159Z,1045
2024-01-20T09:18:55.119Z,1166
2024-01-20T09:25:17.185Z,1319
2024-01-20T09:31:37.052Z,1429
2024-01-20T09:37:59.016Z,1535
2024-01-20T09:44:19.049Z,1644
2024-01-20T09:50:40.962Z,1762
2024-01-20T09:57:01.280Z,1892
2024-01-20T10:03:23.157Z,2046
2024-01-20T10:09:43.029Z,2150
2024-01-20T10:16:05.068Z,2236
2024-01-20T10:22:25.028Z,2401
2024-01-20T10:28:46.926Z,2512
2024-01-20T10:35:07.098Z,2610
2024-01-20T10:41:29.002Z,2698
2024-01-20T10:47:49.060Z,2808
2024-01-20T10:54:11.005Z,2914
2024-01-20T11:00:31.207Z,2981
2024-01-20T11:06:53.006Z,3095
2024-01-20T11:13:13.013Z,3189
2024-01-20T11:19:35.146Z,3257
2024-01-20T11:25:54.987Z,3321
2024-01-20T11:32:17.016Z,3415
2024-01-20T11:38:37.018Z,3452
2024-01-20T11:44:58.990Z,3471
2024-01-20T11:51:19.022Z,3485
2024-01-20T11:57:41.108Z,3513
2024-01-20T12:04:01.006Z,3588
2024-01-20T12:10:23.040Z,3652
2024-01-20T12:16:43.116Z,3718
2024-01-20T12:23:05.115Z,3808
2024-01-20T12:29:24.965Z,3835
2024-01-20T12:35:47.185Z,3891
2024-01-20T12:42:07.158Z,3941
2024-01-20T12:48:29.226Z,4007
2024-01-20T12:54:49.674Z,4043
2024-01-20T13:01:11.006Z,4124
2024-01-20T13:07:30.987Z,4184
2024-01-20T13:13:53.064Z,4174
2024-01-20T13:20:13.089Z,4050
2024-01-20T13:26:35.085Z,3170
2024-01-20T13:32:55.058Z,3839
2024-01-20T13:39:17.026Z,3566
2024-01-20T14:02:45.612Z,2453
2024-01-20T14:09:04.960Z,2381
2024-01-20T14:15:27.144Z,2561
2024-01-20T14:21:47.494Z,1959
2024-01-20T14:28:09.448Z,1690
2024-01-20T14:34:29.174Z,1283
2024-01-20T14:40:51.117Z,1090
2024-01-20T14:47:10.990Z,733
2024-01-20T14:53:33.043Z,764
2024-01-20T14:59:53.070Z,683
2024-01-20T15:06:15.308Z,569
2024-01-20T15:12:35.310Z,469
2024-01-20T15:18:57.113Z,340
2024-01-20T15:25:17.113Z,278
2024-01-20T15:31:39.176Z,216
2024-01-20T15:38:00.489Z,163
2024-01-20T15:44:21.027Z,119
2024-01-20T15:50:41.004Z,85
2024-01-20T15:57:03.359Z,56
2024-01-20T16:03:23.096Z,36
2024-01-20T16:09:45.029Z,23
2024-01-20T16:16:05.148Z,12
2024-01-20T16:22:28.807Z,5
2024-01-20T16:28:47.081Z,2
2024-01-20T16:35:09.036Z,1
2024-01-20T16:41:29.046Z,1
2024-01-20T16:47:52.820Z,0
2024-01-20T16:54:11.100Z,0
2024-01-20T17:00:33.109Z,0
2024-01-20T17:06:53.178Z,0
2024-01-20T17:13:15.212Z,0
2024-01-20T17:19:35.122Z,0
2024-01-20T17:25:57.122Z,0
2024-01-20T17:32:17.005Z,0
2024-01-20T17:38:39.122Z,0
2024-01-20T17:44:59.008Z,0
2024-01-20T17:51:21.218Z,0
2024-01-20T17:57:41.069Z,0
2024-01-20T18:04:03.461Z,0
2024-01-20T18:21:09.931Z,0
2024-01-20T18:27:30.959Z,0
2024-01-20T18:33:51.084Z,0
2024-01-20T18:40:12.968Z,0
2024-01-20T18:46:32.048Z,0
2024-01-20T18:52:54.061Z,0
2024-01-20T18:59:14.200Z,0
2024-01-20T19:05:36.106Z,0
2024-01-20T19:11:56.081Z,0
2024-01-20T19:18:18.381Z,0
2024-01-20T19:24:38.031Z,0
2024-01-20T19:31:00.096Z,0
2024-01-20T19:37:20.164Z,0
2024-01-20T19:43:42.177Z,0
2024-01-20T19:50:02.066Z,0
2024-01-20T19:56:24.011Z,0
2024-01-20T20:02:43.963Z,0
2024-01-20T20:09:06.021Z,0
2024-01-20T20:15:26.047Z,0
2024-01-20T20:21:48.160Z,0
2024-01-20T20:28:07.963Z,0
2024-01-20T20:34:30.262Z,0
2024-01-20T20:40:50.028Z,0
2024-01-20T20:47:12.172Z,0
2024-01-20T20:53:32.142Z,0
2024-01-20T20:59:54.040Z,0
2024-01-20T21:06:14.008Z,0
2024-01-20T21:12:36.251Z,0
2024-01-20T21:18:56.079Z,0
2024-01-20T21:25:18.049Z,0
2024-01-20T21:31:38.242Z,0
2024-01-20T21:38:00.502Z,0
2024-01-20T21:44:20.207Z,0
2024-01-20T21:50:42.287Z,0
2024-01-20T21:57:01.969Z,0
2024-01-20T22:03:24.235Z,0
2024-01-20T22:09:44.052Z,0
2024-01-20T22:16:06.106Z,0
2024-01-20T22:22:26.123Z,0
2024-01-20T22:28:48.043Z,0
2024-01-20T22:35:08.108Z,0
2024-01-20T22:57:53.971Z,0
2024-01-20T23:19:41.072Z,0
2024-01-20T23:26:01.035Z,0
2024-01-20T23:32:23.150Z,0
2024-01-20T23:38:43.041Z,0
2024-01-20T23:45:05.140Z,0
2024-01-20T23:51:28.697Z,0
2024-01-20T23:57:49.987Z,0
